• Join FlightAware (Why Join?)
  • Login
  • US Flag 
Rudolph Flight #1: Arrived! 
07:56AM EST


 

Airport Tracker/Info


-or-


 

Live Flight TrackerFlight Track Log ✈ CTL17 ✈ 08-May-2013 ✈ KPTK - KMBS

Flight Track Log - Related Links

Times and Time Zones

All times are in EDT time to prevent confusion due to time zone crossing. See the CTL17 flight status page for this flight to view local times or setup timezone preferences in your user account.

Time Position Orientation Groundspeed Altitude Reporting Facility
EDT Latitude Longitude Course Direction KTS MPH feet Rate Location/Type
04:19PM 42.6656 -83.3983 88° East 104 120 1,300  Level Cleveland Center
04:19PM 42.6661 -83.3703 88° East 113 130 2,000 840 Climbing Cleveland Center
04:20PM 42.6733 -83.3367 74° East 125 144 2,600 780 Climbing Cleveland Center
04:21PM 42.7064 -83.3436 351° North 129 148 3,400 840 Climbing Cleveland Center
04:23PM 42.7463 -83.3786 14° North  Level Estimated
04:30PM 42.9808 -83.4555 321° Northwest  Level FlightAware Approximate
04:31PM 43.0082 -83.4857 321° Northwest  Level FlightAware Approximate
04:32PM 43.0356 -83.5159 321° Northwest  Level FlightAware Approximate
04:33PM 43.0630 -83.5462 321° Northwest  Level FlightAware Approximate
04:34PM 43.0903 -83.5764 321° Northwest  Level FlightAware Approximate
04:35PM 43.1177 -83.6068 321° Northwest  Level FlightAware Approximate
04:36PM 43.1450 -83.6371 321° Northwest  Level FlightAware Approximate
04:37PM 43.1724 -83.6674 321° Northwest  Level FlightAware Approximate
04:38PM 43.1997 -83.6978 321° Northwest  Level FlightAware Approximate
04:39PM 43.2266 -83.7288 318° Northwest  Level FlightAware Approximate
04:40PM 43.2529 -83.7609 318° Northwest  Level FlightAware Approximate
04:41PM 43.2792 -83.7930 318° Northwest  Level FlightAware Approximate
04:42PM 43.3055 -83.8251 318° Northwest  Level FlightAware Approximate
04:43PM 43.3318 -83.8573 318° Northwest  Level FlightAware Approximate
04:44PM 43.3581 -83.8894 318° Northwest  Level FlightAware Approximate
04:45PM 43.3858 -83.9191 324° Northwest  Level FlightAware Approximate
04:46PM 43.4143 -83.9475 324° Northwest  Level FlightAware Approximate
04:47PM 43.4428 -83.9760 324° Northwest  Level FlightAware Approximate
04:48PM 43.4712 -84.0045 324° Northwest  Level FlightAware Approximate
04:49PM 43.4997 -84.0330 324° Northwest  Level FlightAware Approximate
04:50PM 43.5167 -84.0667 305° West  Level FlightAware Approximate
04:51PM 43.5329 -84.0796 305° West  Level Estimated
04:52PM 43.5329 -84.0796 305° West  Level Estimated